sensor_id;sensor_type;location;lat;lon;timestamp;P1;durP1;ratioP1;P2;durP2;ratioP2
66987;SDS011;53908;51.464;-2.588;2022-07-29T00:00:26;11.40;;;3.40;;
66987;SDS011;53908;51.464;-2.588;2022-07-29T00:02:51;5.68;;;3.55;;
66987;SDS011;53908;51.464;-2.588;2022-07-29T00:05:17;4.45;;;3.40;;
66987;SDS011;53908;51.464;-2.588;2022-07-29T00:07:42;6.85;;;3.83;;
66987;SDS011;53908;51.464;-2.588;2022-07-29T00:10:08;4.45;;;3.30;;
66987;SDS011;53908;51.464;-2.588;2022-07-29T00:12:33;11.43;;;3.47;;
66987;SDS011;53908;51.464;-2.588;2022-07-29T00:14:59;6.15;;;3.22;;
66987;SDS011;53908;51.464;-2.588;2022-07-29T00:17:25;5.38;;;3.42;;
66987;SDS011;53908;51.464;-2.588;2022-07-29T00:19:51;13.85;;;3.70;;
66987;SDS011;53908;51.464;-2.588;2022-07-29T00:22:16;8.00;;;3.85;;
66987;SDS011;53908;51.464;-2.588;2022-07-29T00:24:42;8.57;;;3.78;;
66987;SDS011;53908;51.464;-2.588;2022-07-29T00:27:07;6.40;;;3.90;;
66987;SDS011;53908;51.464;-2.588;2022-07-29T00:29:32;8.00;;;3.78;;
66987;SDS011;53908;51.464;-2.588;2022-07-29T00:31:58;9.00;;;4.20;;
66987;SDS011;53908;51.464;-2.588;2022-07-29T00:34:23;11.07;;;3.80;;
66987;SDS011;53908;51.464;-2.588;2022-07-29T00:37:07;6.63;;;3.80;;
66987;SDS011;53908;51.464;-2.588;2022-07-29T00:39:32;9.43;;;4.03;;
66987;SDS011;53908;51.464;-2.588;2022-07-29T00:41:58;8.00;;;3.90;;
66987;SDS011;53908;51.464;-2.588;2022-07-29T00:44:23;6.22;;;3.50;;
66987;SDS011;53908;51.464;-2.588;2022-07-29T00:46:49;7.57;;;3.78;;
66987;SDS011;53908;51.464;-2.588;2022-07-29T00:49:14;8.75;;;3.83;;
66987;SDS011;53908;51.464;-2.588;2022-07-29T00:51:40;7.50;;;3.78;;
66987;SDS011;53908;51.464;-2.588;2022-07-29T00:54:05;6.95;;;3.85;;
66987;SDS011;53908;51.464;-2.588;2022-07-29T00:56:31;10.18;;;3.50;;
66987;SDS011;53908;51.464;-2.588;2022-07-29T00:58:57;10.18;;;4.05;;
66987;SDS011;53908;51.464;-2.588;2022-07-29T01:01:23;10.13;;;4.03;;
66987;SDS011;53908;51.464;-2.588;2022-07-29T01:03:49;8.63;;;3.83;;
66987;SDS011;53908;51.464;-2.588;2022-07-29T01:06:15;6.38;;;3.80;;
66987;SDS011;53908;51.464;-2.588;2022-07-29T01:08:41;7.50;;;3.65;;
66987;SDS011;53908;51.464;-2.588;2022-07-29T01:11:07;7.80;;;3.90;;
66987;SDS011;53908;51.464;-2.588;2022-07-29T01:13:32;6.45;;;3.60;;
66987;SDS011;53908;51.464;-2.588;2022-07-29T01:15:59;7.15;;;3.45;;
66987;SDS011;53908;51.464;-2.588;2022-07-29T01:18:30;8.30;;;4.03;;
66987;SDS011;53908;51.464;-2.588;2022-07-29T01:26:42;6.85;;;3.30;;
66987;SDS011;53908;51.464;-2.588;2022-07-29T01:31:56;6.45;;;3.63;;
66987;SDS011;53908;51.464;-2.588;2022-07-29T01:37:23;8.82;;;4.07;;
66987;SDS011;53908;51.464;-2.588;2022-07-29T01:40:05;5.60;;;3.80;;
66987;SDS011;53908;51.464;-2.588;2022-07-29T01:42:38;6.00;;;4.20;;
66987;SDS011;53908;51.464;-2.588;2022-07-29T01:47:39;6.78;;;3.83;;
66987;SDS011;53908;51.464;-2.588;2022-07-29T01:50:08;8.82;;;3.95;;
66987;SDS011;53908;51.464;-2.588;2022-07-29T01:52:39;8.52;;;4.10;;
66987;SDS011;53908;51.464;-2.588;2022-07-29T01:55:12;6.03;;;4.05;;
66987;SDS011;53908;51.464;-2.588;2022-07-29T01:57:38;7.78;;;4.00;;
66987;SDS011;53908;51.464;-2.588;2022-07-29T02:00:04;10.07;;;4.28;;
66987;SDS011;53908;51.464;-2.588;2022-07-29T02:02:31;8.80;;;4.15;;
66987;SDS011;53908;51.464;-2.588;2022-07-29T02:04:57;7.78;;;3.90;;
66987;SDS011;53908;51.464;-2.588;2022-07-29T02:07:24;8.68;;;4.20;;
66987;SDS011;53908;51.464;-2.588;2022-07-29T02:09:53;6.47;;;4.07;;
66987;SDS011;53908;51.464;-2.588;2022-07-29T02:12:20;5.55;;;4.20;;
66987;SDS011;53908;51.464;-2.588;2022-07-29T02:14:50;8.30;;;4.10;;
66987;SDS011;53908;51.464;-2.588;2022-07-29T02:17:20;9.35;;;4.40;;
66987;SDS011;53908;51.464;-2.588;2022-07-29T02:19:47;6.07;;;3.97;;
66987;SDS011;53908;51.464;-2.588;2022-07-29T02:22:13;7.10;;;4.07;;
66987;SDS011;53908;51.464;-2.588;2022-07-29T02:24:39;6.80;;;4.35;;
66987;SDS011;53908;51.464;-2.588;2022-07-29T02:27:05;6.28;;;3.80;;
66987;SDS011;53908;51.464;-2.588;2022-07-29T02:29:32;7.95;;;4.28;;
66987;SDS011;53908;51.464;-2.588;2022-07-29T02:31:59;10.95;;;4.15;;
66987;SDS011;53908;51.464;-2.588;2022-07-29T02:34:26;8.05;;;3.92;;
66987;SDS011;53908;51.464;-2.588;2022-07-29T02:36:52;6.82;;;3.95;;
66987;SDS011;53908;51.464;-2.588;2022-07-29T02:39:19;6.15;;;3.85;;
66987;SDS011;53908;51.464;-2.588;2022-07-29T02:41:46;7.45;;;4.15;;
66987;SDS011;53908;51.464;-2.588;2022-07-29T02:44:14;8.27;;;3.83;;
66987;SDS011;53908;51.464;-2.588;2022-07-29T02:46:45;7.25;;;3.80;;
66987;SDS011;53908;51.464;-2.588;2022-07-29T02:57:42;10.63;;;3.85;;
66987;SDS011;53908;51.464;-2.588;2022-07-29T03:00:09;8.45;;;3.92;;
66987;SDS011;53908;51.464;-2.588;2022-07-29T03:02:38;7.78;;;4.03;;
66987;SDS011;53908;51.464;-2.588;2022-07-29T03:05:08;8.38;;;4.30;;
66987;SDS011;53908;51.464;-2.588;2022-07-29T03:07:34;6.32;;;3.63;;
66987;SDS011;53908;51.464;-2.588;2022-07-29T03:10:00;8.75;;;4.57;;
66987;SDS011;53908;51.464;-2.588;2022-07-29T03:12:27;8.23;;;4.18;;
66987;SDS011;53908;51.464;-2.588;2022-07-29T03:14:53;7.82;;;4.30;;
66987;SDS011;53908;51.464;-2.588;2022-07-29T03:17:19;6.63;;;4.70;;
66987;SDS011;53908;51.464;-2.588;2022-07-29T03:19:45;13.82;;;4.97;;
66987;SDS011;53908;51.464;-2.588;2022-07-29T03:22:11;8.70;;;4.88;;
66987;SDS011;53908;51.464;-2.588;2022-07-29T03:24:37;6.70;;;4.47;;
66987;SDS011;53908;51.464;-2.588;2022-07-29T03:27:03;9.88;;;5.18;;
66987;SDS011;53908;51.464;-2.588;2022-07-29T03:29:29;9.70;;;5.00;;
66987;SDS011;53908;51.464;-2.588;2022-07-29T03:31:55;17.23;;;6.40;;
66987;SDS011;53908;51.464;-2.588;2022-07-29T03:34:21;8.77;;;4.78;;
66987;SDS011;53908;51.464;-2.588;2022-07-29T03:36:46;10.82;;;5.03;;
66987;SDS011;53908;51.464;-2.588;2022-07-29T03:39:13;7.28;;;4.68;;
66987;SDS011;53908;51.464;-2.588;2022-07-29T03:41:41;8.43;;;5.00;;
66987;SDS011;53908;51.464;-2.588;2022-07-29T03:44:09;9.90;;;5.57;;
66987;SDS011;53908;51.464;-2.588;2022-07-29T03:46:35;9.57;;;5.53;;
66987;SDS011;53908;51.464;-2.588;2022-07-29T03:49:01;9.63;;;5.55;;
66987;SDS011;53908;51.464;-2.588;2022-07-29T03:51:28;9.70;;;5.50;;
66987;SDS011;53908;51.464;-2.588;2022-07-29T03:53:54;7.70;;;5.07;;
66987;SDS011;53908;51.464;-2.588;2022-07-29T03:56:21;11.38;;;5.40;;
66987;SDS011;53908;51.464;-2.588;2022-07-29T03:58:47;10.13;;;5.78;;
66987;SDS011;53908;51.464;-2.588;2022-07-29T04:01:15;13.80;;;6.03;;
66987;SDS011;53908;51.464;-2.588;2022-07-29T04:03:43;10.00;;;5.22;;
66987;SDS011;53908;51.464;-2.588;2022-07-29T04:06:10;10.35;;;5.40;;
66987;SDS011;53908;51.464;-2.588;2022-07-29T04:08:36;10.82;;;5.38;;
66987;SDS011;53908;51.464;-2.588;2022-07-29T04:11:01;10.95;;;5.85;;
66987;SDS011;53908;51.464;-2.588;2022-07-29T04:13:27;11.02;;;5.72;;
66987;SDS011;53908;51.464;-2.588;2022-07-29T04:15:53;9.32;;;5.70;;
66987;SDS011;53908;51.464;-2.588;2022-07-29T04:18:18;7.65;;;5.18;;
66987;SDS011;53908;51.464;-2.588;2022-07-29T04:20:43;9.30;;;5.63;;
66987;SDS011;53908;51.464;-2.588;2022-07-29T04:23:09;8.23;;;5.53;;
66987;SDS011;53908;51.464;-2.588;2022-07-29T04:25:41;8.38;;;5.85;;
66987;SDS011;53908;51.464;-2.588;2022-07-29T04:28:07;8.95;;;5.90;;
66987;SDS011;53908;51.464;-2.588;2022-07-29T04:30:33;9.52;;;5.78;;
66987;SDS011;53908;51.464;-2.588;2022-07-29T04:32:59;12.63;;;5.57;;
66987;SDS011;53908;51.464;-2.588;2022-07-29T04:35:26;11.32;;;5.72;;
66987;SDS011;53908;51.464;-2.588;2022-07-29T04:37:52;9.07;;;5.75;;
66987;SDS011;53908;51.464;-2.588;2022-07-29T04:40:17;8.45;;;5.43;;
66987;SDS011;53908;51.464;-2.588;2022-07-29T04:42:43;9.95;;;5.78;;
66987;SDS011;53908;51.464;-2.588;2022-07-29T04:45:08;10.23;;;5.10;;
66987;SDS011;53908;51.464;-2.588;2022-07-29T04:47:34;7.57;;;5.20;;
66987;SDS011;53908;51.464;-2.588;2022-07-29T04:49:59;8.80;;;4.90;;
66987;SDS011;53908;51.464;-2.588;2022-07-29T04:52:25;8.20;;;5.22;;
66987;SDS011;53908;51.464;-2.588;2022-07-29T04:54:50;9.50;;;4.80;;
66987;SDS011;53908;51.464;-2.588;2022-07-29T04:57:16;8.02;;;5.97;;
66987;SDS011;53908;51.464;-2.588;2022-07-29T04:59:41;11.45;;;5.30;;
66987;SDS011;53908;51.464;-2.588;2022-07-29T05:02:07;11.95;;;5.13;;
66987;SDS011;53908;51.464;-2.588;2022-07-29T05:04:32;10.98;;;5.25;;
66987;SDS011;53908;51.464;-2.588;2022-07-29T05:06:58;8.35;;;5.40;;
66987;SDS011;53908;51.464;-2.588;2022-07-29T05:09:23;5.93;;;4.78;;
66987;SDS011;53908;51.464;-2.588;2022-07-29T05:11:49;6.55;;;4.78;;
66987;SDS011;53908;51.464;-2.588;2022-07-29T05:14:14;7.65;;;4.93;;
66987;SDS011;53908;51.464;-2.588;2022-07-29T05:16:39;10.07;;;5.00;;
66987;SDS011;53908;51.464;-2.588;2022-07-29T05:19:05;9.50;;;4.70;;
66987;SDS011;53908;51.464;-2.588;2022-07-29T05:21:31;7.43;;;4.60;;
66987;SDS011;53908;51.464;-2.588;2022-07-29T05:23:56;11.95;;;4.80;;
66987;SDS011;53908;51.464;-2.588;2022-07-29T05:26:22;9.30;;;4.57;;
66987;SDS011;53908;51.464;-2.588;2022-07-29T05:28:47;7.93;;;4.38;;
66987;SDS011;53908;51.464;-2.588;2022-07-29T05:31:13;8.43;;;4.35;;
66987;SDS011;53908;51.464;-2.588;2022-07-29T05:33:39;12.13;;;4.22;;
66987;SDS011;53908;51.464;-2.588;2022-07-29T05:36:05;8.13;;;3.90;;
66987;SDS011;53908;51.464;-2.588;2022-07-29T05:38:31;8.30;;;4.40;;
66987;SDS011;53908;51.464;-2.588;2022-07-29T05:40:58;5.28;;;3.85;;
66987;SDS011;53908;51.464;-2.588;2022-07-29T05:43:24;5.70;;;3.60;;
66987;SDS011;53908;51.464;-2.588;2022-07-29T05:45:49;8.68;;;4.03;;
66987;SDS011;53908;51.464;-2.588;2022-07-29T05:48:14;4.47;;;3.30;;
66987;SDS011;53908;51.464;-2.588;2022-07-29T05:50:40;8.43;;;3.85;;
66987;SDS011;53908;51.464;-2.588;2022-07-29T05:53:05;7.53;;;3.63;;
66987;SDS011;53908;51.464;-2.588;2022-07-29T05:55:31;5.60;;;3.30;;
66987;SDS011;53908;51.464;-2.588;2022-07-29T05:57:56;7.82;;;3.50;;
66987;SDS011;53908;51.464;-2.588;2022-07-29T06:00:21;9.95;;;4.13;;
66987;SDS011;53908;51.464;-2.588;2022-07-29T06:02:47;6.50;;;3.72;;
66987;SDS011;53908;51.464;-2.588;2022-07-29T06:05:13;10.98;;;3.72;;
66987;SDS011;53908;51.464;-2.588;2022-07-29T06:07:40;8.45;;;4.25;;
66987;SDS011;53908;51.464;-2.588;2022-07-29T06:10:05;5.78;;;3.95;;
66987;SDS011;53908;51.464;-2.588;2022-07-29T06:12:32;6.13;;;3.70;;
66987;SDS011;53908;51.464;-2.588;2022-07-29T06:14:57;6.43;;;3.85;;
66987;SDS011;53908;51.464;-2.588;2022-07-29T06:17:23;10.70;;;3.92;;
66987;SDS011;53908;51.464;-2.588;2022-07-29T06:19:48;12.10;;;3.88;;
66987;SDS011;53908;51.464;-2.588;2022-07-29T06:22:17;9.07;;;4.35;;
66987;SDS011;53908;51.464;-2.588;2022-07-29T06:24:42;9.02;;;4.25;;
66987;SDS011;53908;51.464;-2.588;2022-07-29T06:27:09;7.13;;;4.05;;
66987;SDS011;53908;51.464;-2.588;2022-07-29T06:29:35;9.57;;;4.53;;
66987;SDS011;53908;51.464;-2.588;2022-07-29T06:32:01;12.45;;;4.20;;
66987;SDS011;53908;51.464;-2.588;2022-07-29T06:34:27;12.27;;;4.28;;
66987;SDS011;53908;51.464;-2.588;2022-07-29T06:36:53;9.38;;;3.60;;
66987;SDS011;53908;51.464;-2.588;2022-07-29T06:39:18;6.85;;;3.45;;
66987;SDS011;53908;51.464;-2.588;2022-07-29T06:41:48;6.68;;;3.05;;
66987;SDS011;53908;51.464;-2.588;2022-07-29T06:44:14;9.48;;;3.10;;
66987;SDS011;53908;51.464;-2.588;2022-07-29T06:46:40;7.50;;;3.30;;
66987;SDS011;53908;51.464;-2.588;2022-07-29T06:49:06;7.88;;;2.80;;
66987;SDS011;53908;51.464;-2.588;2022-07-29T06:51:32;5.57;;;2.38;;
66987;SDS011;53908;51.464;-2.588;2022-07-29T06:53:58;3.53;;;1.90;;
66987;SDS011;53908;51.464;-2.588;2022-07-29T06:56:23;7.22;;;2.08;;
66987;SDS011;53908;51.464;-2.588;2022-07-29T06:58:49;4.72;;;1.80;;
66987;SDS011;53908;51.464;-2.588;2022-07-29T07:01:15;4.55;;;1.90;;
66987;SDS011;53908;51.464;-2.588;2022-07-29T07:03:40;6.97;;;2.20;;
66987;SDS011;53908;51.464;-2.588;2022-07-29T07:06:06;4.78;;;2.03;;
66987;SDS011;53908;51.464;-2.588;2022-07-29T07:08:32;8.38;;;2.00;;
66987;SDS011;53908;51.464;-2.588;2022-07-29T07:10:57;5.90;;;1.90;;
66987;SDS011;53908;51.464;-2.588;2022-07-29T07:13:23;8.20;;;2.08;;
66987;SDS011;53908;51.464;-2.588;2022-07-29T07:15:49;12.73;;;2.00;;
66987;SDS011;53908;51.464;-2.588;2022-07-29T07:18:16;9.95;;;1.70;;
66987;SDS011;53908;51.464;-2.588;2022-07-29T07:20:42;4.50;;;1.52;;
66987;SDS011;53908;51.464;-2.588;2022-07-29T07:23:07;4.97;;;1.58;;
66987;SDS011;53908;51.464;-2.588;2022-07-29T07:25:33;6.82;;;1.73;;
66987;SDS011;53908;51.464;-2.588;2022-07-29T07:27:59;5.25;;;1.80;;
66987;SDS011;53908;51.464;-2.588;2022-07-29T07:30:25;6.50;;;1.83;;
66987;SDS011;53908;51.464;-2.588;2022-07-29T07:32:50;5.57;;;1.58;;
66987;SDS011;53908;51.464;-2.588;2022-07-29T07:35:16;8.23;;;1.50;;
66987;SDS011;53908;51.464;-2.588;2022-07-29T07:37:41;4.60;;;1.60;;
66987;SDS011;53908;51.464;-2.588;2022-07-29T07:40:07;3.45;;;1.45;;
66987;SDS011;53908;51.464;-2.588;2022-07-29T07:42:34;4.07;;;1.70;;
66987;SDS011;53908;51.464;-2.588;2022-07-29T07:44:59;7.45;;;1.38;;
66987;SDS011;53908;51.464;-2.588;2022-07-29T07:47:25;9.50;;;1.60;;
66987;SDS011;53908;51.464;-2.588;2022-07-29T07:49:51;4.22;;;1.35;;
66987;SDS011;53908;51.464;-2.588;2022-07-29T07:52:17;4.50;;;1.65;;
66987;SDS011;53908;51.464;-2.588;2022-07-29T07:54:44;5.38;;;1.77;;
66987;SDS011;53908;51.464;-2.588;2022-07-29T07:57:10;7.00;;;1.70;;
66987;SDS011;53908;51.464;-2.588;2022-07-29T07:59:36;6.45;;;1.65;;
66987;SDS011;53908;51.464;-2.588;2022-07-29T08:02:02;6.65;;;1.60;;
66987;SDS011;53908;51.464;-2.588;2022-07-29T08:04:27;2.35;;;1.40;;
66987;SDS011;53908;51.464;-2.588;2022-07-29T08:06:53;5.60;;;1.67;;
66987;SDS011;53908;51.464;-2.588;2022-07-29T08:09:21;6.53;;;1.30;;
66987;SDS011;53908;51.464;-2.588;2022-07-29T08:11:48;5.05;;;1.60;;
66987;SDS011;53908;51.464;-2.588;2022-07-29T08:14:21;3.67;;;1.38;;
66987;SDS011;53908;51.464;-2.588;2022-07-29T08:16:48;6.32;;;1.45;;
66987;SDS011;53908;51.464;-2.588;2022-07-29T08:19:14;7.28;;;1.50;;
66987;SDS011;53908;51.464;-2.588;2022-07-29T08:21:39;5.40;;;1.70;;
66987;SDS011;53908;51.464;-2.588;2022-07-29T08:24:05;5.93;;;1.40;;
66987;SDS011;53908;51.464;-2.588;2022-07-29T08:26:49;6.00;;;1.40;;
66987;SDS011;53908;51.464;-2.588;2022-07-29T08:29:15;7.75;;;1.60;;
66987;SDS011;53908;51.464;-2.588;2022-07-29T08:31:41;8.68;;;1.48;;
66987;SDS011;53908;51.464;-2.588;2022-07-29T08:34:07;4.13;;;1.40;;
66987;SDS011;53908;51.464;-2.588;2022-07-29T08:36:33;5.65;;;1.50;;
66987;SDS011;53908;51.464;-2.588;2022-07-29T08:38:59;7.05;;;1.40;;
66987;SDS011;53908;51.464;-2.588;2022-07-29T08:41:24;3.72;;;1.52;;
66987;SDS011;53908;51.464;-2.588;2022-07-29T08:43:50;4.30;;;1.38;;
66987;SDS011;53908;51.464;-2.588;2022-07-29T08:46:17;6.40;;;1.70;;
66987;SDS011;53908;51.464;-2.588;2022-07-29T08:48:43;4.68;;;1.50;;
66987;SDS011;53908;51.464;-2.588;2022-07-29T08:51:13;11.52;;;1.40;;
66987;SDS011;53908;51.464;-2.588;2022-07-29T08:53:40;4.45;;;1.48;;
66987;SDS011;53908;51.464;-2.588;2022-07-29T08:56:07;8.40;;;2.00;;
66987;SDS011;53908;51.464;-2.588;2022-07-29T08:58:32;8.18;;;1.73;;
66987;SDS011;53908;51.464;-2.588;2022-07-29T09:00:59;7.05;;;1.80;;
66987;SDS011;53908;51.464;-2.588;2022-07-29T09:03:29;6.43;;;1.80;;
66987;SDS011;53908;51.464;-2.588;2022-07-29T09:05:55;7.88;;;1.70;;
66987;SDS011;53908;51.464;-2.588;2022-07-29T09:08:21;3.70;;;1.42;;
66987;SDS011;53908;51.464;-2.588;2022-07-29T09:10:47;8.20;;;1.70;;
66987;SDS011;53908;51.464;-2.588;2022-07-29T09:13:12;6.03;;;1.63;;
66987;SDS011;53908;51.464;-2.588;2022-07-29T09:15:38;6.63;;;1.77;;
66987;SDS011;53908;51.464;-2.588;2022-07-29T09:18:03;6.07;;;1.70;;
66987;SDS011;53908;51.464;-2.588;2022-07-29T09:20:28;5.35;;;1.60;;
66987;SDS011;53908;51.464;-2.588;2022-07-29T09:23:14;8.45;;;1.52;;
66987;SDS011;53908;51.464;-2.588;2022-07-29T09:25:40;7.30;;;2.20;;
66987;SDS011;53908;51.464;-2.588;2022-07-29T09:28:15;6.93;;;1.75;;
66987;SDS011;53908;51.464;-2.588;2022-07-29T09:30:51;4.97;;;1.35;;
66987;SDS011;53908;51.464;-2.588;2022-07-29T09:33:17;5.80;;;1.67;;
66987;SDS011;53908;51.464;-2.588;2022-07-29T09:35:43;8.85;;;1.77;;
66987;SDS011;53908;51.464;-2.588;2022-07-29T09:38:12;5.72;;;1.63;;
66987;SDS011;53908;51.464;-2.588;2022-07-29T09:40:38;6.60;;;1.67;;
66987;SDS011;53908;51.464;-2.588;2022-07-29T09:43:11;7.28;;;1.52;;
66987;SDS011;53908;51.464;-2.588;2022-07-29T09:45:37;3.85;;;1.20;;
66987;SDS011;53908;51.464;-2.588;2022-07-29T09:48:13;6.20;;;1.52;;
66987;SDS011;53908;51.464;-2.588;2022-07-29T09:50:43;9.00;;;1.70;;
66987;SDS011;53908;51.464;-2.588;2022-07-29T09:53:08;3.88;;;1.35;;
66987;SDS011;53908;51.464;-2.588;2022-07-29T09:55:50;6.53;;;1.75;;
66987;SDS011;53908;51.464;-2.588;2022-07-29T09:58:17;5.80;;;1.48;;
66987;SDS011;53908;51.464;-2.588;2022-07-29T10:00:53;5.47;;;1.60;;
66987;SDS011;53908;51.464;-2.588;2022-07-29T10:03:20;7.90;;;1.45;;
66987;SDS011;53908;51.464;-2.588;2022-07-29T10:05:46;11.70;;;1.65;;
66987;SDS011;53908;51.464;-2.588;2022-07-29T10:08:12;4.63;;;1.70;;
66987;SDS011;53908;51.464;-2.588;2022-07-29T10:10:41;5.25;;;1.30;;
66987;SDS011;53908;51.464;-2.588;2022-07-29T10:13:08;3.67;;;1.42;;
66987;SDS011;53908;51.464;-2.588;2022-07-29T10:15:36;4.43;;;1.50;;
66987;SDS011;53908;51.464;-2.588;2022-07-29T10:18:04;6.82;;;1.60;;
66987;SDS011;53908;51.464;-2.588;2022-07-29T10:20:30;4.32;;;1.70;;
66987;SDS011;53908;51.464;-2.588;2022-07-29T10:22:55;4.20;;;1.30;;
66987;SDS011;53908;51.464;-2.588;2022-07-29T10:25:22;4.38;;;1.40;;
66987;SDS011;53908;51.464;-2.588;2022-07-29T10:27:49;8.45;;;1.60;;
66987;SDS011;53908;51.464;-2.588;2022-07-29T10:30:16;3.78;;;1.40;;
66987;SDS011;53908;51.464;-2.588;2022-07-29T10:33:17;5.63;;;1.40;;
66987;SDS011;53908;51.464;-2.588;2022-07-29T10:44:20;5.43;;;1.50;;
66987;SDS011;53908;51.464;-2.588;2022-07-29T10:46:47;4.38;;;1.58;;
66987;SDS011;53908;51.464;-2.588;2022-07-29T10:49:17;5.53;;;1.33;;
66987;SDS011;53908;51.464;-2.588;2022-07-29T10:51:53;6.28;;;1.70;;
66987;SDS011;53908;51.464;-2.588;2022-07-29T10:57:18;5.97;;;1.50;;
66987;SDS011;53908;51.464;-2.588;2022-07-29T11:05:23;4.00;;;1.20;;
66987;SDS011;53908;51.464;-2.588;2022-07-29T11:08:34;3.28;;;1.35;;
66987;SDS011;53908;51.464;-2.588;2022-07-29T11:10:36;5.43;;;1.50;;
66987;SDS011;53908;51.464;-2.588;2022-07-29T11:13:02;8.05;;;1.60;;
66987;SDS011;53908;51.464;-2.588;2022-07-29T11:15:27;4.63;;;1.40;;
66987;SDS011;53908;51.464;-2.588;2022-07-29T11:31:16;4.05;;;1.40;;
66987;SDS011;53908;51.464;-2.588;2022-07-29T11:33:45;3.53;;;1.30;;
66987;SDS011;53908;51.464;-2.588;2022-07-29T11:36:11;2.95;;;1.30;;
66987;SDS011;53908;51.464;-2.588;2022-07-29T11:38:40;7.60;;;1.35;;
66987;SDS011;53908;51.464;-2.588;2022-07-29T11:41:25;3.75;;;1.45;;
66987;SDS011;53908;51.464;-2.588;2022-07-29T11:43:53;4.90;;;1.17;;
66987;SDS011;53908;51.464;-2.588;2022-07-29T11:51:56;2.88;;;1.10;;
66987;SDS011;53908;51.464;-2.588;2022-07-29T11:54:26;8.13;;;1.20;;
66987;SDS011;53908;51.464;-2.588;2022-07-29T11:56:57;4.70;;;1.17;;
66987;SDS011;53908;51.464;-2.588;2022-07-29T11:59:23;5.25;;;1.40;;
66987;SDS011;53908;51.464;-2.588;2022-07-29T12:01:55;6.38;;;1.30;;
66987;SDS011;53908;51.464;-2.588;2022-07-29T12:04:22;4.05;;;1.33;;
66987;SDS011;53908;51.464;-2.588;2022-07-29T12:06:51;3.67;;;1.30;;
66987;SDS011;53908;51.464;-2.588;2022-07-29T12:09:17;2.65;;;1.10;;
66987;SDS011;53908;51.464;-2.588;2022-07-29T12:11:43;5.85;;;1.30;;
66987;SDS011;53908;51.464;-2.588;2022-07-29T12:14:09;6.53;;;1.40;;
66987;SDS011;53908;51.464;-2.588;2022-07-29T12:16:35;3.42;;;1.30;;
66987;SDS011;53908;51.464;-2.588;2022-07-29T12:19:01;11.57;;;1.60;;
66987;SDS011;53908;51.464;-2.588;2022-07-29T12:21:28;8.85;;;1.35;;
66987;SDS011;53908;51.464;-2.588;2022-07-29T12:23:55;8.38;;;1.50;;
66987;SDS011;53908;51.464;-2.588;2022-07-29T12:26:22;5.38;;;1.38;;
66987;SDS011;53908;51.464;-2.588;2022-07-29T12:28:47;3.88;;;1.30;;
66987;SDS011;53908;51.464;-2.588;2022-07-29T12:31:13;3.20;;;1.38;;
66987;SDS011;53908;51.464;-2.588;2022-07-29T12:33:39;4.38;;;1.40;;
66987;SDS011;53908;51.464;-2.588;2022-07-29T12:36:05;16.70;;;1.50;;
66987;SDS011;53908;51.464;-2.588;2022-07-29T12:38:31;2.88;;;1.20;;
66987;SDS011;53908;51.464;-2.588;2022-07-29T12:40:56;2.53;;;1.10;;
66987;SDS011;53908;51.464;-2.588;2022-07-29T12:43:23;2.72;;;1.27;;
66987;SDS011;53908;51.464;-2.588;2022-07-29T12:45:50;5.15;;;1.20;;
66987;SDS011;53908;51.464;-2.588;2022-07-29T12:48:17;3.88;;;1.23;;
66987;SDS011;53908;51.464;-2.588;2022-07-29T12:50:53;3.15;;;1.10;;
66987;SDS011;53908;51.464;-2.588;2022-07-29T12:53:22;10.70;;;1.23;;
66987;SDS011;53908;51.464;-2.588;2022-07-29T12:55:49;3.70;;;1.33;;
66987;SDS011;53908;51.464;-2.588;2022-07-29T13:01:10;7.05;;;1.25;;
66987;SDS011;53908;51.464;-2.588;2022-07-29T13:09:16;5.78;;;1.38;;
66987;SDS011;53908;51.464;-2.588;2022-07-29T13:11:44;8.75;;;1.30;;
66987;SDS011;53908;51.464;-2.588;2022-07-29T13:14:14;8.88;;;1.35;;
66987;SDS011;53908;51.464;-2.588;2022-07-29T13:17:07;5.13;;;1.17;;
66987;SDS011;53908;51.464;-2.588;2022-07-29T13:19:44;5.82;;;1.20;;
66987;SDS011;53908;51.464;-2.588;2022-07-29T13:22:15;4.00;;;1.00;;
66987;SDS011;53908;51.464;-2.588;2022-07-29T13:27:19;3.00;;;1.25;;
66987;SDS011;53908;51.464;-2.588;2022-07-29T13:29:45;5.30;;;1.23;;
66987;SDS011;53908;51.464;-2.588;2022-07-29T13:32:11;4.50;;;1.42;;
66987;SDS011;53908;51.464;-2.588;2022-07-29T13:34:37;5.13;;;1.55;;
66987;SDS011;53908;51.464;-2.588;2022-07-29T13:37:03;4.20;;;1.10;;
66987;SDS011;53908;51.464;-2.588;2022-07-29T13:39:29;3.22;;;1.00;;
66987;SDS011;53908;51.464;-2.588;2022-07-29T13:41:55;4.32;;;1.27;;
66987;SDS011;53908;51.464;-2.588;2022-07-29T13:44:20;4.75;;;1.40;;
66987;SDS011;53908;51.464;-2.588;2022-07-29T13:46:46;6.97;;;1.23;;
66987;SDS011;53908;51.464;-2.588;2022-07-29T13:49:11;12.40;;;1.45;;
66987;SDS011;53908;51.464;-2.588;2022-07-29T13:51:37;2.60;;;1.10;;
66987;SDS011;53908;51.464;-2.588;2022-07-29T13:54:03;8.50;;;1.58;;
66987;SDS011;53908;51.464;-2.588;2022-07-29T13:56:29;5.85;;;1.42;;
66987;SDS011;53908;51.464;-2.588;2022-07-29T13:58:54;9.35;;;1.60;;
66987;SDS011;53908;51.464;-2.588;2022-07-29T14:01:20;3.03;;;1.38;;
66987;SDS011;53908;51.464;-2.588;2022-07-29T14:03:46;4.95;;;1.30;;
66987;SDS011;53908;51.464;-2.588;2022-07-29T14:06:11;4.32;;;1.15;;
66987;SDS011;53908;51.464;-2.588;2022-07-29T14:08:38;6.03;;;1.20;;
66987;SDS011;53908;51.464;-2.588;2022-07-29T14:11:03;5.03;;;1.10;;
66987;SDS011;53908;51.464;-2.588;2022-07-29T14:13:29;6.57;;;1.10;;
66987;SDS011;53908;51.464;-2.588;2022-07-29T14:15:54;2.72;;;1.08;;
66987;SDS011;53908;51.464;-2.588;2022-07-29T14:18:20;8.75;;;1.10;;
66987;SDS011;53908;51.464;-2.588;2022-07-29T14:20:45;7.13;;;1.40;;
66987;SDS011;53908;51.464;-2.588;2022-07-29T14:23:11;2.80;;;0.95;;
66987;SDS011;53908;51.464;-2.588;2022-07-29T14:25:36;3.88;;;1.13;;
66987;SDS011;53908;51.464;-2.588;2022-07-29T14:28:02;5.25;;;1.23;;
66987;SDS011;53908;51.464;-2.588;2022-07-29T14:30:27;2.85;;;1.30;;
66987;SDS011;53908;51.464;-2.588;2022-07-29T14:32:53;2.72;;;1.10;;
66987;SDS011;53908;51.464;-2.588;2022-07-29T14:35:18;3.72;;;1.60;;
66987;SDS011;53908;51.464;-2.588;2022-07-29T14:37:44;10.98;;;1.83;;
66987;SDS011;53908;51.464;-2.588;2022-07-29T14:40:09;5.22;;;1.60;;
66987;SDS011;53908;51.464;-2.588;2022-07-29T14:42:35;26.00;;;3.35;;
66987;SDS011;53908;51.464;-2.588;2022-07-29T14:45:02;6.85;;;1.50;;
66987;SDS011;53908;51.464;-2.588;2022-07-29T14:47:29;3.97;;;1.38;;
66987;SDS011;53908;51.464;-2.588;2022-07-29T14:49:55;5.05;;;2.00;;
66987;SDS011;53908;51.464;-2.588;2022-07-29T14:52:20;5.55;;;1.63;;
66987;SDS011;53908;51.464;-2.588;2022-07-29T14:54:46;3.38;;;1.40;;
66987;SDS011;53908;51.464;-2.588;2022-07-29T14:57:11;3.33;;;2.00;;
66987;SDS011;53908;51.464;-2.588;2022-07-29T14:59:37;5.60;;;2.10;;
66987;SDS011;53908;51.464;-2.588;2022-07-29T15:02:02;9.30;;;2.65;;
66987;SDS011;53908;51.464;-2.588;2022-07-29T15:04:28;9.75;;;1.90;;
66987;SDS011;53908;51.464;-2.588;2022-07-29T15:06:53;7.63;;;1.88;;
66987;SDS011;53908;51.464;-2.588;2022-07-29T15:09:19;11.70;;;3.00;;
66987;SDS011;53908;51.464;-2.588;2022-07-29T15:11:44;16.17;;;2.83;;
66987;SDS011;53908;51.464;-2.588;2022-07-29T15:14:10;9.35;;;2.10;;
66987;SDS011;53908;51.464;-2.588;2022-07-29T15:16:38;7.65;;;2.45;;
66987;SDS011;53908;51.464;-2.588;2022-07-29T15:19:07;20.70;;;1.85;;
66987;SDS011;53908;51.464;-2.588;2022-07-29T15:21:33;9.52;;;2.20;;
66987;SDS011;53908;51.464;-2.588;2022-07-29T15:23:59;6.78;;;1.50;;
66987;SDS011;53908;51.464;-2.588;2022-07-29T15:26:24;9.18;;;1.77;;
66987;SDS011;53908;51.464;-2.588;2022-07-29T15:28:50;4.93;;;1.63;;
66987;SDS011;53908;51.464;-2.588;2022-07-29T15:31:15;12.00;;;2.88;;
66987;SDS011;53908;51.464;-2.588;2022-07-29T15:33:41;6.78;;;1.70;;
66987;SDS011;53908;51.464;-2.588;2022-07-29T15:36:06;6.70;;;1.80;;
66987;SDS011;53908;51.464;-2.588;2022-07-29T15:38:32;8.68;;;1.63;;
66987;SDS011;53908;51.464;-2.588;2022-07-29T15:40:58;10.25;;;2.03;;